Eunapolis, Brazil
Current Conditions -  °F | °C
As of 9:00 AM on Thursday 18 Dec 2014 (Local Time) from SBPS Reporting Station
Rain Showers Rain Showers  
Wind Chill: 77°   Ceiling: 4000
Heat Index: NA   Visibility: 6mi
Dew Point: NA   Wind: 9mph
Humidity: NA   Direction: 10°N
Pressure: 29.94"   Gusts: NA
Location:  16.38°S, 39.58°W
Report Text: SBPS 181200Z 01008KT 340V040 9999 VCSH SCT010 SCT020 BKN040 25/23 Q1014
Loading
Personal Weather Stations






























Interactive Weather Map New forecast layout! Learn more

10-Day Weather Forecast

Advertisements
Track Severe Weather on mobile